الصفحة الرئيسية
METAR-TAF:

METAR-TAF

مطار :

Lamar Municipal Airport

Lamar, كولورادو, الولايات المتحدة

دائرة عرض: 38-04-21N, خط طول: 102-41-12W, ارتفاع: 1128 متر

مراقبة الطقس الحالي

تاريخ ووقت الإصدار 44 دقيقة قبل الساعة 01:53UTC
ريح 9 عقدة من الجنوب الشرقي
درجة الحرارة 28°درجة مئوية
الرطوبة 27%
ضغط 1012 hPa
الرؤية: 16.1 كم
سماء صافية

METAR: KLAA 260153Z AUTO 14009KT 10SM CLR 28/07 A2988 RMK AO2 SLP068 T02830067 TSNO

زمن: 20:37 (02:37 UTC)


TAF: مفقودة

أرصاد الطقس والتوقعات من أكثر من 4000 مطار (تقارير الطقس للمطار METAR والتنبؤ بالطقس بالمطارTAF).

المحطات المتاحة هي النقط الصفراء والحمراء على الخريطة.

حرك المؤشر فوق النقطة لمعرفة اسم المحطة.

ثم انقر لمعرفة أرصاد وتوقعات الطقس.

لتغيير الخارطة: اضغط على الأزرار الخضراء مع رمز الصليب الأسود للتكبير. على الزر الأخضر مع شرطة للتصغير، أو على الأسهم الخضراء للخرائط المجاورة.


METAR-TAF: